Time;durP1;ratioP1;P1;durP2;ratioP2;P2;SDS_P1;SDS_P2;PMS_P1;PMS_P2;Temp;Humidity;BMP_temperature;BMP_pressure;BME280_temperature;BME280_humidity;BME280_pressure;Samples;Min_cycle;Max_cycle;Signal;HPM_P1;HPM_P2
2021/01/19 00:01:22;;;;;;;;;;;1.90;99.90;;;-0.85;81.60;96324.84;10363580;28;1962;-87
2021/01/19 00:06:24;;;;;;;;;;;0.30;99.90;;;-0.95;82.08;96321.72;10383174;28;1154;-85
2021/01/19 00:11:27;;;;;;;;;;;0.50;99.90;;;-0.97;81.43;96326.34;10347593;28;1743;-85
2021/01/19 00:16:29;;;;;;;;;;;0.10;99.90;;;-1.01;81.61;96314.53;10372643;28;1224;-85
2021/01/19 00:21:31;;;;;;;;;;;1.50;99.90;;;-1.14;81.92;96312.59;10366038;28;1991;-83
2021/01/19 00:26:33;;;;;;;;;;;0.30;99.90;;;-1.18;81.77;96300.75;10355504;28;1118;-86
2021/01/19 00:31:35;;;;;;;;;;;0.90;99.90;;;-1.24;82.61;96297.03;10324013;28;2607;-85
2021/01/19 00:36:37;;;;;;;;;;;1.20;99.90;;;-1.27;83.27;96291.31;10360585;28;1278;-84
2021/01/19 00:41:39;;;;;;;;;;;-0.10;99.90;;;-1.28;82.82;96290.50;10353403;28;1982;-84
2021/01/19 00:46:42;;;;;;;;;;;1.40;99.90;;;-1.39;82.51;96285.72;10349764;28;1760;-83
2021/01/19 00:51:44;;;;;;;;;;;1.30;99.90;;;-1.49;83.03;96282.56;10348730;28;2436;-83
2021/01/19 00:56:46;;;;;;;;;;;1.20;99.90;;;-1.48;83.63;96286.84;10340044;28;2389;-83
2021/01/19 01:01:48;;;;;;;;;;;0.50;99.90;;;-1.46;83.16;96269.03;10334737;28;1973;-83
2021/01/19 01:06:50;;;;;;;;;;;-0.40;99.90;;;-1.47;82.67;96276.09;10338330;28;1261;-83
2021/01/19 01:11:52;;;;;;;;;;;-0.30;99.90;;;-1.46;82.93;96263.75;10344080;28;1859;-86
2021/01/19 01:16:56;;;;;;;;;;;1.50;99.90;;;-1.51;83.37;96277.50;10345152;28;1491;-83
2021/01/19 01:21:58;;;;;;;;;;;0.40;99.90;;;-1.50;82.63;96281.75;10356884;28;1983;-85
2021/01/19 01:27:04;;;;;;;;;;;-0.30;99.90;;;-1.49;82.73;96277.28;10360465;28;1370;-83
2021/01/19 01:32:06;;;;;;;;;;;1.00;99.90;;;-1.44;82.72;96288.09;10332516;28;1887;-86
2021/01/19 01:37:08;;;;;;;;;;;0.60;99.90;;;-1.51;83.19;96290.66;10317894;28;2031;-87
2021/01/19 01:42:11;;;;;;;;;;;-0.40;99.90;;;-1.57;83.43;96295.88;10333506;28;1959;-85
2021/01/19 01:47:13;;;;;;;;;;;0.50;99.90;;;-1.63;83.98;96290.31;10347270;28;1710;-85
2021/01/19 01:52:15;;;;;;;;;;;1.80;99.90;;;-1.66;83.52;96290.69;10329993;28;1921;-84
2021/01/19 01:57:17;;;;;;;;;;;-0.40;99.90;;;-1.66;83.78;96290.69;10344398;28;2135;-86
2021/01/19 02:02:19;;;;;;;;;;;1.00;99.90;;;-1.73;82.92;96276.59;10349919;28;1914;-87
2021/01/19 02:07:21;;;;;;;;;;;-0.50;99.90;;;-1.73;83.21;96271.34;10367722;28;1880;-86
2021/01/19 02:12:23;;;;;;;;;;;0.50;99.90;;;-1.61;82.41;96253.22;10332770;28;2064;-83
2021/01/19 02:17:26;;;;;;;;;;;-0.50;99.90;;;-1.59;81.82;96258.31;10345630;28;3452;-84
2021/01/19 02:22:27;;;;;;;;;;;0.70;99.90;;;-1.65;82.52;96242.25;10349238;28;1979;-84
2021/01/19 02:27:29;;;;;;;;;;;-0.50;99.90;;;-1.73;83.36;96234.44;10346403;28;2140;-84
2021/01/19 02:32:31;;;;;;;;;;;1.20;99.90;;;-1.83;84.31;96233.94;10329442;28;1294;-86
2021/01/19 02:37:33;;;;;;;;;;;0.60;99.90;;;-1.87;83.70;96232.66;10343956;28;1265;-85
2021/01/19 02:42:35;;;;;;;;;;;0.70;99.90;;;-1.89;84.75;96229.41;10317697;28;2309;-85
2021/01/19 02:47:37;;;;;;;;;;;0.60;99.90;;;-1.94;85.35;96224.66;10329579;28;1328;-83
2021/01/19 02:52:39;;;;;;;;;;;0.40;99.90;;;-2.00;85.40;96227.22;10336968;28;2160;-84
2021/01/19 02:57:41;;;;;;;;;;;0.40;99.90;;;-2.08;85.59;96225.50;10350391;28;1944;-85
2021/01/19 03:02:43;;;;;;;;;;;-0.20;99.90;;;-2.06;85.61;96222.69;10327860;28;2548;-83
2021/01/19 03:07:45;;;;;;;;;;;-0.80;99.90;;;-2.12;85.53;96220.78;10326718;28;1318;-83
2021/01/19 03:12:47;;;;;;;;;;;-0.10;99.90;;;-2.04;85.34;96210.13;10355326;28;2219;-83
2021/01/19 03:17:49;;;;;;;;;;;-0.90;99.90;;;-2.04;84.87;96220.69;10349305;28;2074;-83
2021/01/19 03:22:51;;;;;;;;;;;-0.90;99.90;;;-2.09;85.27;96220.44;10369282;28;2027;-83
2021/01/19 03:27:53;;;;;;;;;;;-0.60;99.90;;;-2.13;85.01;96212.06;10360040;28;2521;-83
2021/01/19 03:32:55;;;;;;;;;;;0.50;99.90;;;-2.15;85.34;96202.72;10353010;28;1301;-82
2021/01/19 03:37:56;;;;;;;;;;;-0.80;99.90;;;-2.22;85.49;96205.28;10350240;28;1363;-83
2021/01/19 03:42:58;;;;;;;;;;;1.10;99.90;;;-2.23;85.27;96195.72;10370171;28;2126;-85
2021/01/19 03:48:00;;;;;;;;;;;0.40;99.90;;;-2.24;85.61;96200.19;10366311;28;2165;-85
2021/01/19 03:53:05;;;;;;;;;;;-1.10;99.90;;;-2.27;86.52;96189.22;10366630;28;2142;-84
2021/01/19 03:58:07;;;;;;;;;;;-0.20;99.90;;;-2.34;86.96;96193.56;10375637;28;2063;-82
2021/01/19 04:03:08;;;;;;;;;;;-1.20;99.90;;;-2.33;86.23;96184.66;10353954;28;1960;-85
2021/01/19 04:08:10;;;;;;;;;;;-1.20;99.90;;;-2.39;85.89;96186.22;10357883;28;1431;-83
2021/01/19 04:13:12;;;;;;;;;;;-0.60;99.90;;;-2.50;86.04;96168.25;10379717;28;1886;-85
2021/01/19 04:18:15;;;;;;;;;;;-0.90;99.90;;;-2.56;86.51;96179.50;10339509;28;1387;-84
2021/01/19 04:23:17;;;;;;;;;;;-0.40;99.90;;;-2.61;86.84;96176.59;10349863;28;1910;-83
2021/01/19 04:28:19;;;;;;;;;;;-0.10;99.90;;;-2.56;86.53;96168.97;10351707;28;2120;-83
2021/01/19 04:33:21;;;;;;;;;;;-0.60;99.90;;;-2.61;86.78;96159.00;10360702;28;2105;-84
2021/01/19 04:38:23;;;;;;;;;;;-1.40;99.90;;;-2.61;86.74;96161.63;10344567;28;2162;-83
2021/01/19 04:43:25;;;;;;;;;;;-1.40;99.90;;;-2.60;86.84;96159.81;10327015;28;1891;-84
2021/01/19 04:48:26;;;;;;;;;;;-1.40;99.90;;;-2.59;86.53;96148.28;10352056;28;1249;-83
2021/01/19 04:53:28;;;;;;;;;;;-1.40;99.90;;;-2.54;86.89;96149.38;10354929;28;2120;-84
2021/01/19 04:58:30;;;;;;;;;;;-0.80;99.90;;;-2.50;86.14;96136.66;10332546;28;2179;-83
2021/01/19 05:03:33;;;;;;;;;;;-1.40;99.90;;;-2.56;85.78;96140.00;10364503;28;2575;-85
2021/01/19 05:08:40;;;;;;;;;;;0.30;99.90;;;-2.52;85.76;96128.13;10332975;28;2073;-85
2021/01/19 05:13:42;;;;;;;;;;;-0.90;99.90;;;-2.63;85.81;96123.31;10337416;28;2560;-84
2021/01/19 05:18:45;;;;;;;;;;;-1.40;99.90;;;-2.65;85.84;96117.44;10338532;28;2273;-83
2021/01/19 05:23:46;;;;;;;;;;;-1.50;99.90;;;-2.71;85.90;96103.19;10349175;28;1895;-82
2021/01/19 05:28:49;;;;;;;;;;;-1.60;99.90;;;-2.73;85.84;96108.66;10360824;28;2517;-84
2021/01/19 05:33:51;;;;;;;;;;;-1.50;99.90;;;-2.72;85.33;96110.28;10341928;28;2482;-87
2021/01/19 05:38:53;;;;;;;;;;;-1.50;99.90;;;-2.73;85.03;96098.13;10334740;28;1904;-87
2021/01/19 05:43:55;;;;;;;;;;;-1.60;99.90;;;-2.75;84.41;96092.19;10341564;28;1914;-85
2021/01/19 05:48:57;;;;;;;;;;;-1.50;99.90;;;-2.76;83.63;96092.38;10328154;28;1999;-86
2021/01/19 05:53:59;;;;;;;;;;;-1.00;99.90;;;-2.77;84.16;96088.94;10341387;28;2090;-86
2021/01/19 05:59:03;;;;;;;;;;;-1.60;99.90;;;-2.79;83.42;96077.78;10324498;28;1956;-86
2021/01/19 06:04:05;;;;;;;;;;;-1.60;99.90;;;-2.80;83.43;96083.22;10363296;28;2018;-85
2021/01/19 06:09:07;;;;;;;;;;;-1.60;99.90;;;-2.81;82.34;96077.16;10338448;28;1768;-84
2021/01/19 06:14:12;;;;;;;;;;;-1.60;99.90;;;-2.81;82.33;96077.16;10347404;28;1921;-86
2021/01/19 06:19:17;;;;;;;;;;;0.80;99.90;;;-2.82;82.04;96064.19;10367548;28;3620;-83
2021/01/19 06:24:19;;;;;;;;;;;-0.70;99.90;;;-2.81;82.40;96057.91;10362187;28;4315;-82
2021/01/19 06:29:23;;;;;;;;;;;-1.60;99.90;;;-2.79;82.22;96050.69;10336453;28;3540;-83
2021/01/19 06:34:25;;;;;;;;;;;-1.60;99.90;;;-2.78;81.26;96045.22;10351721;28;1822;-85
2021/01/19 06:39:27;;;;;;;;;;;-0.20;99.90;;;-2.77;81.76;96036.31;10346819;28;2059;-84
2021/01/19 06:44:30;;;;;;;;;;;-1.70;99.90;;;-2.78;81.99;96034.69;10370934;28;1950;-84
2021/01/19 06:49:33;;;;;;;;;;;-1.40;99.90;;;-2.65;82.29;96028.78;10351557;28;2086;-85
2021/01/19 06:54:35;;;;;;;;;;;-0.10;99.90;;;-2.53;80.79;96010.69;10355305;28;2448;-85
2021/01/19 06:59:37;;;;;;;;;;;1.10;99.90;;;-2.49;80.26;96017.19;10356641;28;2446;-86
2021/01/19 07:04:39;;;;;;;;;;;0.00;99.90;;;-2.53;78.96;96008.88;10325330;28;1981;-85
2021/01/19 07:09:41;;;;;;;;;;;-1.30;99.90;;;-2.61;79.12;96005.53;10383796;28;1906;-82
2021/01/19 07:14:45;;;;;;;;;;;-1.50;99.90;;;-2.68;80.09;96002.81;10319504;28;1870;-81
2021/01/19 07:19:50;;;;;;;;;;;-1.50;99.90;;;-2.70;80.02;95989.03;10325568;28;2571;-84
2021/01/19 07:24:52;;;;;;;;;;;-0.10;99.90;;;-2.59;79.97;95993.00;10348008;28;2404;-84
2021/01/19 07:29:54;;;;;;;;;;;-0.10;99.90;;;-2.51;79.36;95979.72;10367576;28;1958;-83
2021/01/19 07:34:57;;;;;;;;;;;-0.30;99.90;;;-2.34;78.50;95978.50;10336741;28;2535;-84
2021/01/19 07:40:05;;;;;;;;;;;-1.00;99.90;;;-2.17;77.71;95966.66;10361203;28;2128;-84
2021/01/19 07:45:07;;;;;;;;;;;0.00;99.90;;;-2.09;77.62;95949.13;10345849;28;1981;-87
2021/01/19 07:50:10;;;;;;;;;;;0.50;99.90;;;-2.01;76.80;95954.25;10354917;28;2073;-84
2021/01/19 07:55:13;;;;;;;;;;;-0.30;99.90;;;-2.00;74.86;95940.88;10332178;28;2149;-84
2021/01/19 08:00:20;;;;;;;;;;;0.30;99.90;;;-1.89;75.44;95938.75;10343796;28;2438;-84
2021/01/19 08:05:27;;;;;;;;;;;-0.50;99.90;;;-1.67;75.30;95932.41;10325540;28;1944;-83
2021/01/19 08:10:35;;;;;;;;;;;0.30;99.90;;;-1.49;73.27;95922.16;10326290;28;2119;-83
2021/01/19 08:15:40;;;;;;;;;;;0.50;99.90;;;-1.40;72.88;95912.25;10324960;28;2126;-84
2021/01/19 08:20:50;;;;;;;;;;;-0.50;99.90;;;-1.24;72.42;95917.22;10338297;28;2472;-83
2021/01/19 08:25:52;;;;;;;;;;;0.40;99.90;;;-1.01;71.73;95906.38;10346839;28;2409;-83
2021/01/19 08:30:54;;;;;;;;;;;1.60;99.90;;;-0.53;69.47;95900.97;10359217;28;2587;-85
2021/01/19 08:35:56;;;;;;;;;;;0.30;99.90;;;-0.35;68.99;95890.66;10333114;28;2426;-84
2021/01/19 08:40:58;;;;;;;;;;;0.50;99.90;;;-0.19;68.06;95902.66;10345831;28;2623;-83
2021/01/19 08:46:04;;;;;;;;;;;2.20;99.90;;;0.10;67.49;95906.69;10346690;28;2410;-85
2021/01/19 08:51:08;;;;;;;;;;;0.90;99.90;;;-0.01;67.74;95894.91;10331222;28;2049;-85
2021/01/19 08:56:10;;;;;;;;;;;1.00;99.90;;;0.00;66.83;95882.53;10332205;28;2118;-82
2021/01/19 09:01:15;;;;;;;;;;;1.00;99.90;;;0.04;68.24;95882.91;10352313;28;2338;-83
2021/01/19 09:06:17;;;;;;;;;;;0.90;99.90;;;-0.21;68.01;95875.59;10343145;28;2154;-84
2021/01/19 09:11:19;;;;;;;;;;;1.60;99.90;;;-0.18;67.46;95869.94;10347759;28;1757;-83
2021/01/19 09:16:24;;;;;;;;;;;2.50;99.90;;;-0.21;66.86;95875.59;10346744;28;2343;-84
2021/01/19 09:21:27;;;;;;;;;;;0.90;99.90;;;-0.12;67.71;95871.75;10358883;28;4022;-82
2021/01/19 09:26:35;;;;;;;;;;;1.30;99.90;;;0.13;66.67;95863.19;10332159;28;2267;-81
2021/01/19 09:31:37;;;;;;;;;;;0.90;99.90;;;0.35;66.73;95856.63;10332696;28;2054;-82
2021/01/19 09:36:42;;;;;;;;;;;2.70;99.90;;;0.67;64.20;95851.44;10350789;28;1225;-83
2021/01/19 09:41:44;;;;;;;;;;;1.40;98.20;;;0.80;64.11;95841.59;10340523;28;2126;-86
2021/01/19 09:46:47;;;;;;;;;;;1.70;97.10;;;0.93;63.89;95824.84;10343430;28;2033;-85
2021/01/19 09:51:49;;;;;;;;;;;1.80;96.30;;;1.18;64.05;95810.88;10375514;28;1324;-84
2021/01/19 09:56:51;;;;;;;;;;;1.90;96.20;;;1.15;63.97;95806.00;10364629;28;2141;-83
2021/01/19 10:01:55;;;;;;;;;;;2.20;95.60;;;1.26;62.43;95792.06;10344180;28;2188;-81
2021/01/19 10:06:57;;;;;;;;;;;2.90;94.40;;;1.20;62.85;95780.50;10364054;28;2028;-84
2021/01/19 10:11:59;;;;;;;;;;;2.50;93.30;;;1.36;61.57;95765.94;10376783;28;1250;-82
2021/01/19 10:17:04;;;;;;;;;;;2.90;92.80;;;1.30;62.49;95753.53;10359027;28;1134;-83
2021/01/19 10:22:06;;;;;;;;;;;2.20;91.80;;;1.60;60.99;95743.13;10369195;28;1981;-82
2021/01/19 10:27:07;;;;;;;;;;;2.40;91.30;;;1.85;60.17;95735.13;10349748;28;2296;-83
2021/01/19 10:32:11;;;;;;;;;;;3.00;90.20;;;1.86;59.24;95728.78;10345305;28;2040;-83
2021/01/19 10:37:14;;;;;;;;;;;2.80;88.40;;;2.15;60.07;95722.72;10356996;28;2460;-83
2021/01/19 10:42:16;;;;;;;;;;;4.30;89.50;;;2.71;58.67;95721.63;10354937;28;2350;-83
2021/01/19 10:47:18;;;;;;;;;;;3.40;88.30;;;2.93;56.49;95723.78;10325783;28;2394;-82
2021/01/19 10:52:20;;;;;;;;;;;3.60;86.40;;;3.14;56.89;95725.09;10345789;28;2030;-83
2021/01/19 10:57:22;;;;;;;;;;;4.60;86.70;;;3.20;58.84;95722.34;10317678;28;1277;-82
2021/01/19 11:02:24;;;;;;;;;;;4.40;86.40;;;3.23;56.88;95721.88;10340284;28;2106;-83
2021/01/19 11:07:26;;;;;;;;;;;5.00;85.90;;;3.47;58.08;95708.63;10344309;28;2170;-85
2021/01/19 11:12:28;;;;;;;;;;;6.20;87.10;;;3.31;56.27;95693.34;10340503;28;2142;-83
2021/01/19 11:17:30;;;;;;;;;;;4.20;83.70;;;3.29;55.53;95675.00;10322226;28;3964;-85
2021/01/19 11:22:32;;;;;;;;;;;5.50;83.30;;;3.72;55.41;95657.88;10335125;28;3851;-85
2021/01/19 11:27:34;;;;;;;;;;;5.80;83.50;;;3.93;55.08;95653.78;10336086;28;2396;-84
2021/01/19 11:32:36;;;;;;;;;;;4.70;82.50;;;4.19;54.97;95642.63;10331806;28;1921;-85
2021/01/19 11:37:38;;;;;;;;;;;5.00;82.50;;;4.23;54.56;95633.13;10347482;28;1959;-85
2021/01/19 11:42:40;;;;;;;;;;;5.10;82.00;;;4.51;56.19;95627.00;10349549;28;2337;-85
2021/01/19 11:47:43;;;;;;;;;;;5.50;82.70;;;4.70;53.85;95610.81;10356547;28;2250;-85
2021/01/19 11:52:45;;;;;;;;;;;6.10;81.70;;;4.72;54.47;95612.19;10351010;28;2423;-84
2021/01/19 11:57:48;;;;;;;;;;;5.60;80.60;;;4.98;54.25;95581.47;10354809;28;2305;-85
2021/01/19 12:02:50;;;;;;;;;;;5.70;80.50;;;5.04;52.56;95575.16;10335838;28;1910;-86
2021/01/19 12:07:53;;;;;;;;;;;7.60;79.30;;;5.33;50.68;95564.38;10343386;28;2342;-86
2021/01/19 12:12:55;;;;;;;;;;;6.60;76.90;;;5.42;50.19;95557.59;10328028;28;1942;-84
2021/01/19 12:17:57;;;;;;;;;;;6.30;76.20;;;5.56;51.32;95540.16;10352528;28;2019;-85
2021/01/19 12:22:59;;;;;;;;;;;8.10;75.80;;;5.62;47.83;95538.38;10334941;28;2165;-84
2021/01/19 12:28:05;;;;;;;;;;;7.50;74.70;;;5.54;48.19;95528.16;10336636;28;3891;-83
2021/01/19 12:33:07;;;;;;;;;;;6.50;72.30;;;5.62;47.23;95517.03;10346767;28;3490;-84
2021/01/19 12:38:11;;;;;;;;;;;6.50;71.60;;;5.60;45.41;95503.16;10347481;28;1217;-84
2021/01/19 12:43:23;;;;;;;;;;;6.50;70.20;;;5.43;48.10;95505.88;10355144;28;3530;-84
2021/01/19 13:00:33;;;;;;;;;;;7.10;71.30;;;4.77;49.89;95473.81;10346671;28;2429;-85
2021/01/19 13:06:03;;;;;;;;;;;5.90;71.30;;;4.83;48.78;95466.69;10340796;28;1887;-84
2021/01/19 13:11:21;;;;;;;;;;;5.90;71.70;;;5.01;47.99;95465.59;10341250;28;1720;-86
2021/01/19 13:16:23;;;;;;;;;;;7.10;72.10;;;5.03;47.98;95460.84;10325673;28;2080;-84
2021/01/19 13:21:26;;;;;;;;;;;5.90;71.40;;;4.75;46.47;95457.25;10327820;28;1806;-89
2021/01/19 13:26:28;;;;;;;;;;;6.60;69.60;;;4.53;50.16;95457.22;10360775;28;2372;-88
2021/01/19 13:31:30;;;;;;;;;;;6.50;72.20;;;4.37;48.65;95446.56;10351762;28;1779;-88
2021/01/19 13:36:32;;;;;;;;;;;7.50;72.00;;;4.17;50.08;95453.16;10347152;28;2257;-88
2021/01/19 13:41:34;;;;;;;;;;;5.30;71.50;;;4.14;48.87;95434.25;10362722;28;2297;-84
2021/01/19 13:46:36;;;;;;;;;;;5.20;71.50;;;4.17;49.78;95431.88;10371707;28;2262;-85
2021/01/19 13:51:41;;;;;;;;;;;5.20;71.80;;;4.16;50.30;95440.94;10370205;28;1955;-87
2021/01/19 13:56:44;;;;;;;;;;;6.90;72.30;;;4.22;48.67;95436.50;10335019;28;2282;-87
2021/01/19 14:01:49;;;;;;;;;;;6.20;71.20;;;4.25;49.90;95433.34;10323035;28;2289;-86
2021/01/19 14:06:51;;;;;;;;;;;5.30;71.80;;;4.22;49.80;95439.97;10348602;28;2281;-87
2021/01/19 14:11:55;;;;;;;;;;;5.30;71.50;;;4.23;50.11;95430.13;10334242;28;2427;-86
2021/01/19 14:16:57;;;;;;;;;;;6.20;72.50;;;4.29;50.11;95440.59;10368206;28;2041;-86
2021/01/19 14:22:00;;;;;;;;;;;5.30;72.00;;;4.31;48.64;95435.03;10354010;28;2269;-86
2021/01/19 14:27:07;;;;;;;;;;;5.30;70.60;;;4.28;49.51;95417.72;10365178;28;2377;-85
2021/01/19 14:32:10;;;;;;;;;;;5.30;71.10;;;4.32;50.02;95432.13;10329183;28;2413;-87
2021/01/19 14:37:18;;;;;;;;;;;5.40;71.60;;;4.34;50.17;95427.38;10345635;28;1770;-86
2021/01/19 14:42:23;;;;;;;;;;;5.40;71.30;;;4.26;50.28;95434.94;10377020;28;2344;-86
2021/01/19 14:47:26;;;;;;;;;;;7.00;72.10;;;4.15;51.82;95431.34;10358527;28;2344;-85
2021/01/19 14:52:31;;;;;;;;;;;5.30;72.90;;;4.02;53.73;95450.28;10364577;28;1261;-84
2021/01/19 14:57:57;;;;;;;;;;;5.10;75.00;;;3.88;56.03;95464.88;10594227;23;3586;-85
2021/01/19 15:02:59;;;;;;;;;;;5.00;76.90;;;3.70;58.25;95463.25;10426610;28;2302;-88
2021/01/19 15:08:05;;;;;;;;;;;4.90;78.80;;;3.25;63.96;95456.03;10410664;28;2136;-86
2021/01/19 15:13:12;;;;;;;;;;;4.60;83.30;;;2.92;68.62;95462.75;10390479;28;2026;-86
2021/01/19 15:18:15;;;;;;;;;;;4.10;88.60;;;2.76;71.65;95462.69;10405365;28;2359;-84
2021/01/19 15:23:20;;;;;;;;;;;5.60;92.90;;;2.61;74.29;95461.31;10415825;28;2165;-85
2021/01/19 15:28:25;;;;;;;;;;;5.30;96.20;;;2.57;75.53;95476.06;10410363;28;1983;-86
2021/01/19 15:33:27;;;;;;;;;;;4.70;98.40;;;2.51;77.41;95463.72;10393993;28;1949;-85
2021/01/19 15:38:29;;;;;;;;;;;6.00;99.90;;;2.46;79.17;95462.78;10409479;28;2129;-85
2021/01/19 15:43:31;;;;;;;;;;;3.50;99.90;;;2.41;81.29;95461.63;10399951;28;1971;-86
2021/01/19 15:48:33;;;;;;;;;;;4.40;99.90;;;2.42;82.26;95457.16;10377266;28;2625;-85
2021/01/19 15:53:36;;;;;;;;;;;4.60;99.90;;;2.45;82.75;95446.06;10387150;28;2354;-85
2021/01/19 15:58:38;;;;;;;;;;;4.30;99.90;;;2.42;83.19;95452.66;10390514;28;2297;-82
2021/01/19 16:03:40;;;;;;;;;;;5.00;99.90;;;2.39;83.44;95445.13;10403933;28;2193;-82
2021/01/19 16:08:42;;;;;;;;;;;4.90;99.90;;;2.41;82.98;95437.75;10387848;28;2181;-82
2021/01/19 16:13:44;;;;;;;;;;;3.50;99.90;;;2.40;83.42;95440.63;10395580;28;2396;-82
2021/01/19 16:18:46;;;;;;;;;;;5.40;99.90;;;2.40;83.68;95454.69;10366003;28;3868;-83
2021/01/19 16:23:48;;;;;;;;;;;3.40;99.90;;;2.37;83.86;95464.97;10380161;28;2359;-83
2021/01/19 16:28:50;;;;;;;;;;;4.00;99.90;;;2.44;82.80;95466.47;10384109;28;2260;-83
2021/01/19 16:33:52;;;;;;;;;;;3.50;99.90;;;2.40;83.34;95461.84;10388583;28;2256;-83
2021/01/19 16:38:53;;;;;;;;;;;4.60;99.90;;;2.43;82.53;95493.25;10377370;28;2470;-84
2021/01/19 16:43:55;;;;;;;;;;;5.40;99.90;;;2.40;82.93;95493.69;10377267;28;2263;-83
2021/01/19 16:48:57;;;;;;;;;;;3.50;99.90;;;2.39;83.69;95492.88;10391714;28;2267;-84
2021/01/19 16:53:59;;;;;;;;;;;3.40;99.90;;;2.34;84.06;95481.34;10399368;28;2074;-82
2021/01/19 16:59:03;;;;;;;;;;;4.60;99.90;;;2.35;83.43;95494.38;10371919;28;2354;-82
2021/01/19 17:04:06;;;;;;;;;;;3.40;99.90;;;2.55;81.17;95475.50;10392709;28;2393;-82
2021/01/19 17:09:08;;;;;;;;;;;3.50;99.90;;;2.51;80.72;95481.47;10406008;28;2505;-83
2021/01/19 17:14:10;;;;;;;;;;;4.30;99.90;;;2.59;78.94;95492.56;10417621;28;2361;-82
2021/01/19 17:19:12;;;;;;;;;;;3.60;99.90;;;2.58;79.60;95488.28;10420412;28;2989;-83
2021/01/19 17:24:14;;;;;;;;;;;3.90;99.90;;;2.70;76.87;95489.09;10404081;28;1980;-84
2021/01/19 17:29:16;;;;;;;;;;;3.60;99.90;;;2.81;76.29;95484.03;10396922;28;3496;-82
2021/01/19 17:34:18;;;;;;;;;;;3.80;99.90;;;2.76;77.03;95483.91;10371566;28;2131;-86
2021/01/19 17:39:21;;;;;;;;;;;5.10;99.90;;;2.84;75.81;95491.50;10410474;28;2133;-85
2021/01/19 17:44:23;;;;;;;;;;;5.10;99.90;;;3.12;73.97;95494.28;10408864;28;3537;-85
2021/01/19 17:49:25;;;;;;;;;;;5.70;99.90;;;3.02;73.63;95499.34;10408816;28;1820;-86
2021/01/19 17:54:27;;;;;;;;;;;4.60;99.90;;;3.05;74.15;95498.06;10381272;28;2035;-88
2021/01/19 17:59:29;;;;;;;;;;;5.80;99.90;;;3.03;75.57;95489.53;10376149;28;3204;-85
2021/01/19 18:04:44;;;;;;;;;;;4.90;99.90;;;3.06;76.08;95491.75;10380353;28;2530;-85
2021/01/19 18:09:47;;;;;;;;;;;4.10;99.90;;;3.06;76.24;95478.47;10390722;28;2210;-85
2021/01/19 18:14:49;;;;;;;;;;;4.00;99.90;;;3.22;75.34;95489.16;10391284;28;1398;-85
2021/01/19 18:19:52;;;;;;;;;;;4.20;99.90;;;3.25;76.52;95487.91;10386071;28;2175;-83
2021/01/19 18:24:54;;;;;;;;;;;5.70;99.90;;;3.45;75.40;95487.50;10374466;28;2350;-86
2021/01/19 18:29:56;;;;;;;;;;;6.00;99.90;;;3.55;75.20;95493.00;10407651;28;2291;-86
2021/01/19 18:34:58;;;;;;;;;;;4.50;99.90;;;3.57;75.29;95500.75;10390360;28;2318;-86
2021/01/19 18:40:00;;;;;;;;;;;4.70;99.90;;;3.63;76.19;95505.94;10381384;28;2335;-89
2021/01/19 18:45:05;;;;;;;;;;;5.80;99.90;;;3.64;76.99;95512.84;10400033;28;2692;-87
2021/01/19 18:50:07;;;;;;;;;;;4.70;99.90;;;3.62;77.36;95492.84;10381936;28;2637;-86
2021/01/19 18:55:09;;;;;;;;;;;5.40;99.90;;;3.59;79.09;95499.47;10395686;28;1624;-85
2021/01/19 19:00:14;;;;;;;;;;;4.70;99.90;;;3.59;79.40;95504.78;10388940;28;1320;-85
2021/01/19 19:05:27;;;;;;;;;;;4.60;99.90;;;3.59;81.17;95507.44;10384168;28;1922;-88
2021/01/19 19:10:29;;;;;;;;;;;5.20;99.90;;;3.48;82.91;95509.06;10402748;28;1962;-85
2021/01/19 19:15:40;;;;;;;;;;;4.60;99.90;;;3.43;83.88;95510.81;10401381;28;1179;-86
2021/01/19 19:20:44;;;;;;;;;;;5.90;99.90;;;3.43;83.91;95506.31;10398439;28;1817;-86
2021/01/19 19:25:46;;;;;;;;;;;5.50;99.90;;;3.42;83.97;95504.69;10382820;28;1902;-85
2021/01/19 19:30:50;;;;;;;;;;;4.50;99.90;;;3.52;82.18;95514.75;10389435;28;1564;-86
2021/01/19 19:35:53;;;;;;;;;;;6.10;99.90;;;3.46;83.37;95510.38;10404352;28;1412;-85
2021/01/19 19:40:55;;;;;;;;;;;4.50;99.90;;;3.44;83.32;95517.78;10424167;28;1312;-86
2021/01/19 19:46:03;;;;;;;;;;;4.50;99.90;;;3.48;82.90;95516.25;10409579;28;1942;-85
2021/01/19 19:51:05;;;;;;;;;;;4.50;99.90;;;3.55;81.76;95508.94;10405887;28;1318;-84
2021/01/19 19:56:07;;;;;;;;;;;5.30;99.90;;;3.58;81.88;95516.47;10390692;28;1760;-86
2021/01/19 20:01:09;;;;;;;;;;;4.70;99.90;;;3.56;81.50;95502.56;10382490;28;1386;-82
2021/01/19 20:06:11;;;;;;;;;;;4.90;99.90;;;3.51;82.21;95494.53;10383800;28;3913;-85
2021/01/19 20:11:14;;;;;;;;;;;4.60;99.90;;;3.40;81.38;95490.03;10409944;28;3948;-83
2021/01/19 20:16:16;;;;;;;;;;;5.60;99.90;;;3.27;82.19;95501.75;10398154;28;1575;-86
2021/01/19 20:21:18;;;;;;;;;;;4.60;99.90;;;3.21;82.59;95490.19;10381828;28;1328;-86
2021/01/19 20:26:20;;;;;;;;;;;4.30;99.90;;;3.36;81.77;95488.91;10416265;28;3818;-88
2021/01/19 20:31:22;;;;;;;;;;;5.20;99.90;;;3.36;81.83;95492.34;10415552;28;1300;-86
2021/01/19 20:36:25;;;;;;;;;;;6.10;99.90;;;3.33;81.20;95494.69;10407444;28;1224;-86
2021/01/19 20:41:30;;;;;;;;;;;4.50;99.90;;;3.46;79.80;95499.75;10413238;28;1516;-86
2021/01/19 20:46:32;;;;;;;;;;;5.90;99.90;;;3.58;79.18;95497.06;10417138;28;1960;-86
2021/01/19 20:51:37;;;;;;;;;;;4.60;99.90;;;3.55;79.48;95498.31;10409502;28;1574;-88
2021/01/19 20:56:43;;;;;;;;;;;5.20;99.90;;;3.62;78.33;95493.66;10387715;28;1349;-85
2021/01/19 21:01:50;;;;;;;;;;;6.60;99.90;;;3.64;78.05;95509.41;10400002;28;1316;-86
2021/01/19 21:06:52;;;;;;;;;;;4.70;99.90;;;3.60;78.15;95511.69;10414409;28;1895;-88
2021/01/19 21:11:54;;;;;;;;;;;4.70;99.90;;;3.63;77.02;95511.25;10415540;28;1320;-87
2021/01/19 21:17:07;;;;;;;;;;;4.70;99.90;;;3.69;76.50;95501.50;10381662;28;1634;-86
2021/01/19 21:22:11;;;;;;;;;;;6.10;99.90;;;3.73;74.33;95500.78;10375053;28;1883;-87
2021/01/19 21:27:14;;;;;;;;;;;4.80;99.90;;;3.72;74.29;95493.88;10385972;28;1646;-88
2021/01/19 21:32:16;;;;;;;;;;;6.70;99.90;;;3.69;73.28;95478.41;10378212;28;1533;-85
2021/01/19 21:37:18;;;;;;;;;;;5.10;99.90;;;3.69;72.29;95470.44;10396063;28;2352;-86
2021/01/19 21:42:24;;;;;;;;;;;6.80;99.90;;;3.69;72.54;95467.78;10400186;28;2427;-87
2021/01/19 21:47:28;;;;;;;;;;;5.70;99.90;;;3.67;71.79;95459.22;10385073;28;2304;-84
2021/01/19 21:52:31;;;;;;;;;;;5.60;99.90;;;3.71;71.07;95449.72;10387244;28;2297;-87
2021/01/19 21:57:33;;;;;;;;;;;4.70;99.90;;;3.70;72.92;95432.16;10401379;28;2009;-86
2021/01/19 22:02:35;;;;;;;;;;;4.80;99.90;;;3.75;70.75;95426.94;10370874;28;2316;-87
2021/01/19 22:07:38;;;;;;;;;;;5.10;99.90;;;3.77;68.71;95414.22;10400617;28;1792;-87
2021/01/19 22:12:54;;;;;;;;;;;5.00;99.90;;;3.82;68.05;95410.00;10394940;28;2352;-84
2021/01/19 22:17:56;;;;;;;;;;;4.90;99.90;;;3.74;66.26;95412.00;10394332;28;2430;-87
2021/01/19 22:22:59;;;;;;;;;;;4.90;99.90;;;3.63;66.77;95412.09;10381982;28;2295;-87
2021/01/19 22:28:04;;;;;;;;;;;5.60;99.90;;;3.57;65.94;95411.19;10393752;28;2274;-90
2021/01/19 22:33:06;;;;;;;;;;;6.50;99.90;;;3.64;64.95;95400.41;10365419;28;2261;-88
2021/01/19 22:38:11;;;;;;;;;;;5.50;97.70;;;3.62;64.42;95405.94;10387286;28;2316;-86
2021/01/19 22:43:29;;;;;;;;;;;4.80;97.10;;;3.64;62.96;95403.88;10389561;28;1895;-86
2021/01/19 22:48:36;;;;;;;;;;;4.70;94.50;;;3.62;63.04;95400.63;10393250;28;2341;-85
2021/01/19 22:53:39;;;;;;;;;;;4.70;94.50;;;3.57;63.43;95403.22;10387374;28;3149;-89
2021/01/19 22:58:41;;;;;;;;;;;4.70;94.10;;;3.68;63.27;95399.69;10406110;28;2076;-85
2021/01/19 23:03:43;;;;;;;;;;;4.70;93.70;;;3.67;64.89;95392.75;10374546;28;1997;-87
2021/01/19 23:08:45;;;;;;;;;;;4.80;94.30;;;3.76;63.72;95383.34;10401227;28;2139;-87
2021/01/19 23:13:47;;;;;;;;;;;4.80;93.40;;;3.76;62.42;95379.91;10380713;28;2346;-86
2021/01/19 23:18:50;;;;;;;;;;;4.80;92.40;;;3.70;63.13;95367.56;10388956;28;1981;-88
2021/01/19 23:23:52;;;;;;;;;;;4.90;93.00;;;3.63;62.83;95367.72;10384675;28;2237;-89
2021/01/19 23:28:54;;;;;;;;;;;4.80;91.80;;;3.69;61.81;95365.94;10368928;28;2389;-85
2021/01/19 23:33:56;;;;;;;;;;;6.00;92.20;;;3.56;64.27;95361.72;10405178;28;1716;-84
2021/01/19 23:38:59;;;;;;;;;;;5.50;93.10;;;3.44;63.29;95364.47;10388489;28;1679;-87
2021/01/19 23:44:03;;;;;;;;;;;5.50;92.50;;;3.27;64.96;95378.75;10407853;28;1891;-90
2021/01/19 23:49:05;;;;;;;;;;;6.70;94.10;;;3.06;66.30;95367.75;10481571;23;3543;-87